sensor_id;sensor_type;location;lat;lon;timestamp;pressure;altitude;pressure_sealevel;temperature;humidity
58239;BME280;44037;55.638;37.356;2023-05-14T00:00:02;99737.16;;;12.93;51.66
58239;BME280;44037;55.638;37.356;2023-05-14T00:02:36;99730.22;;;12.85;52.30
58239;BME280;44037;55.638;37.356;2023-05-14T00:05:05;99726.78;;;12.82;52.90
58239;BME280;44037;55.638;37.356;2023-05-14T00:07:33;99741.50;;;12.78;53.14
58239;BME280;44037;55.638;37.356;2023-05-14T00:10:00;99739.75;;;12.72;53.11
58239;BME280;44037;55.638;37.356;2023-05-14T00:12:30;99733.69;;;12.66;53.32
58239;BME280;44037;55.638;37.356;2023-05-14T00:14:57;99738.88;;;12.63;53.71
58239;BME280;44037;55.638;37.356;2023-05-14T00:17:25;99731.91;;;12.58;53.58
58239;BME280;44037;55.638;37.356;2023-05-14T00:19:52;99741.44;;;12.55;54.51
58239;BME280;44037;55.638;37.356;2023-05-14T00:22:20;99740.53;;;12.50;54.18
58239;BME280;44037;55.638;37.356;2023-05-14T00:24:48;99748.34;;;12.43;54.40
58239;BME280;44037;55.638;37.356;2023-05-14T00:27:15;99744.84;;;12.38;54.95
58239;BME280;44037;55.638;37.356;2023-05-14T00:29:42;99747.41;;;12.35;54.93
58239;BME280;44037;55.638;37.356;2023-05-14T00:32:10;99736.16;;;12.30;55.89
58239;BME280;44037;55.638;37.356;2023-05-14T00:34:37;99756.06;;;12.26;55.90
58239;BME280;44037;55.638;37.356;2023-05-14T00:37:04;99751.69;;;12.19;56.02
58239;BME280;44037;55.638;37.356;2023-05-14T00:39:33;99752.56;;;12.15;56.19
58239;BME280;44037;55.638;37.356;2023-05-14T00:42:00;99746.47;;;12.10;56.13
58239;BME280;44037;55.638;37.356;2023-05-14T00:44:27;99752.53;;;12.07;57.09
58239;BME280;44037;55.638;37.356;2023-05-14T00:46:54;99749.03;;;12.04;57.11
58239;BME280;44037;55.638;37.356;2023-05-14T00:49:22;99750.75;;;11.98;57.93
58239;BME280;44037;55.638;37.356;2023-05-14T00:51:49;99754.16;;;11.94;58.12
58239;BME280;44037;55.638;37.356;2023-05-14T00:54:17;99757.59;;;11.93;58.32
58239;BME280;44037;55.638;37.356;2023-05-14T00:56:47;99761.06;;;11.89;58.31
58239;BME280;44037;55.638;37.356;2023-05-14T00:59:14;99759.28;;;11.85;58.53
58239;BME280;44037;55.638;37.356;2023-05-14T01:01:41;99755.81;;;11.81;58.92
58239;BME280;44037;55.638;37.356;2023-05-14T01:04:09;99760.13;;;11.79;59.39
58239;BME280;44037;55.638;37.356;2023-05-14T01:06:46;99767.88;;;11.76;58.80
58239;BME280;44037;55.638;37.356;2023-05-14T01:09:21;99769.59;;;11.73;59.64
58239;BME280;44037;55.638;37.356;2023-05-14T01:11:56;99766.97;;;11.70;59.39
58239;BME280;44037;55.638;37.356;2023-05-14T01:14:32;99764.34;;;11.66;59.52
58239;BME280;44037;55.638;37.356;2023-05-14T01:17:03;99760.88;;;11.63;60.14
58239;BME280;44037;55.638;37.356;2023-05-14T01:19:35;99770.41;;;11.64;60.16
58239;BME280;44037;55.638;37.356;2023-05-14T01:22:04;99775.56;;;11.61;60.46
58239;BME280;44037;55.638;37.356;2023-05-14T01:24:32;99772.94;;;11.56;60.65
58239;BME280;44037;55.638;37.356;2023-05-14T01:27:04;99771.19;;;11.52;60.93
58239;BME280;44037;55.638;37.356;2023-05-14T01:29:35;99776.34;;;11.50;60.74
58239;BME280;44037;55.638;37.356;2023-05-14T01:32:05;99772.03;;;11.48;61.25
58239;BME280;44037;55.638;37.356;2023-05-14T01:34:35;99777.19;;;11.45;60.20
58239;BME280;44037;55.638;37.356;2023-05-14T01:37:05;99781.47;;;11.43;60.97
58239;BME280;44037;55.638;37.356;2023-05-14T01:39:34;99778.91;;;11.40;61.04
58239;BME280;44037;55.638;37.356;2023-05-14T01:42:04;99784.94;;;11.39;61.93
58239;BME280;44037;55.638;37.356;2023-05-14T01:44:32;99785.78;;;11.39;61.39
58239;BME280;44037;55.638;37.356;2023-05-14T01:46:59;99792.72;;;11.39;61.78
58239;BME280;44037;55.638;37.356;2023-05-14T01:49:27;99786.63;;;11.38;62.14
58239;BME280;44037;55.638;37.356;2023-05-14T01:51:54;99793.56;;;11.39;61.96
58239;BME280;44037;55.638;37.356;2023-05-14T01:54:22;99805.66;;;11.37;61.81
58239;BME280;44037;55.638;37.356;2023-05-14T01:56:50;99797.84;;;11.32;62.63
58239;BME280;44037;55.638;37.356;2023-05-14T01:59:17;99796.94;;;11.30;62.15
58239;BME280;44037;55.638;37.356;2023-05-14T02:01:44;99790.91;;;11.30;62.67
58239;BME280;44037;55.638;37.356;2023-05-14T02:04:11;99799.53;;;11.29;62.90
58239;BME280;44037;55.638;37.356;2023-05-14T02:06:38;99801.28;;;11.30;63.32
58239;BME280;44037;55.638;37.356;2023-05-14T02:09:05;99798.69;;;11.30;63.04
58239;BME280;44037;55.638;37.356;2023-05-14T02:11:34;99792.69;;;11.35;62.85
58239;BME280;44037;55.638;37.356;2023-05-14T02:14:01;99783.25;;;11.47;61.97
58239;BME280;44037;55.638;37.356;2023-05-14T02:16:28;99798.03;;;11.56;61.96
58239;BME280;44037;55.638;37.356;2023-05-14T02:18:56;99798.06;;;11.62;61.51
58239;BME280;44037;55.638;37.356;2023-05-14T02:21:43;99799.88;;;11.71;61.51
58239;BME280;44037;55.638;37.356;2023-05-14T02:24:10;99806.81;;;11.76;61.82
58239;BME280;44037;55.638;37.356;2023-05-14T02:26:38;99805.13;;;11.84;60.84
58239;BME280;44037;55.638;37.356;2023-05-14T02:29:06;99809.53;;;11.92;60.94
58239;BME280;44037;55.638;37.356;2023-05-14T02:31:33;99809.56;;;11.96;60.28
58239;BME280;44037;55.638;37.356;2023-05-14T02:34:01;99807.03;;;12.04;60.32
58239;BME280;44037;55.638;37.356;2023-05-14T02:36:29;99810.53;;;12.09;59.62
58239;BME280;44037;55.638;37.356;2023-05-14T02:38:58;99815.75;;;12.14;60.25
58239;BME280;44037;55.638;37.356;2023-05-14T02:41:25;99807.09;;;12.13;59.80
58239;BME280;44037;55.638;37.356;2023-05-14T02:43:54;99812.28;;;12.18;60.12
58239;BME280;44037;55.638;37.356;2023-05-14T02:46:21;99814.06;;;12.22;59.80
58239;BME280;44037;55.638;37.356;2023-05-14T02:48:48;99819.28;;;12.27;59.24
58239;BME280;44037;55.638;37.356;2023-05-14T02:51:15;99814.09;;;12.30;59.51
58239;BME280;44037;55.638;37.356;2023-05-14T02:53:42;99819.31;;;12.33;59.32
58239;BME280;44037;55.638;37.356;2023-05-14T02:56:10;99825.38;;;12.35;59.81
58239;BME280;44037;55.638;37.356;2023-05-14T02:58:37;99820.19;;;12.38;59.40
58239;BME280;44037;55.638;37.356;2023-05-14T03:01:06;99821.97;;;12.41;60.19
58239;BME280;44037;55.638;37.356;2023-05-14T03:03:34;99817.63;;;12.44;59.68
58239;BME280;44037;55.638;37.356;2023-05-14T03:06:03;99823.72;;;12.48;59.62
58239;BME280;44037;55.638;37.356;2023-05-14T03:08:30;99827.22;;;12.53;59.05
58239;BME280;44037;55.638;37.356;2023-05-14T03:10:57;99825.50;;;12.60;59.13
58239;BME280;44037;55.638;37.356;2023-05-14T03:13:25;99826.34;;;12.62;59.38
58239;BME280;44037;55.638;37.356;2023-05-14T03:15:52;99821.16;;;12.65;58.97
58239;BME280;44037;55.638;37.356;2023-05-14T03:18:21;99828.97;;;12.67;59.76
58239;BME280;44037;55.638;37.356;2023-05-14T03:20:49;99827.25;;;12.72;59.24
58239;BME280;44037;55.638;37.356;2023-05-14T03:23:16;99825.56;;;12.79;59.71
58239;BME280;44037;55.638;37.356;2023-05-14T03:25:43;99837.69;;;12.86;58.74
58239;BME280;44037;55.638;37.356;2023-05-14T03:28:10;99837.75;;;12.95;57.94
58239;BME280;44037;55.638;37.356;2023-05-14T03:30:37;99835.13;;;13.01;58.75
58239;BME280;44037;55.638;37.356;2023-05-14T03:33:05;99831.69;;;13.10;58.45
58239;BME280;44037;55.638;37.356;2023-05-14T03:35:34;99829.09;;;13.19;58.02
58239;BME280;44037;55.638;37.356;2023-05-14T03:38:01;99834.31;;;13.24;56.80
58239;BME280;44037;55.638;37.356;2023-05-14T03:40:28;99835.19;;;13.29;57.08
58239;BME280;44037;55.638;37.356;2023-05-14T03:42:55;99840.41;;;13.32;56.49
58239;BME280;44037;55.638;37.356;2023-05-14T03:45:22;99836.94;;;13.33;56.55
58239;BME280;44037;55.638;37.356;2023-05-14T03:47:49;99830.84;;;13.36;55.82
58239;BME280;44037;55.638;37.356;2023-05-14T03:50:16;99833.44;;;13.37;55.54
58239;BME280;44037;55.638;37.356;2023-05-14T03:52:45;99832.63;;;13.42;55.50
58239;BME280;44037;55.638;37.356;2023-05-14T03:55:12;99841.31;;;13.45;55.67
58239;BME280;44037;55.638;37.356;2023-05-14T03:57:39;99830.91;;;13.47;55.40
58239;BME280;44037;55.638;37.356;2023-05-14T04:00:08;99841.28;;;13.50;55.10
58239;BME280;44037;55.638;37.356;2023-05-14T04:02:35;99847.38;;;13.55;55.62
58239;BME280;44037;55.638;37.356;2023-05-14T04:05:02;99837.84;;;13.62;55.60
58239;BME280;44037;55.638;37.356;2023-05-14T04:07:30;99836.97;;;13.72;55.90
58239;BME280;44037;55.638;37.356;2023-05-14T04:09:58;99840.44;;;13.87;54.57
58239;BME280;44037;55.638;37.356;2023-05-14T04:12:25;99849.09;;;13.93;54.38
58239;BME280;44037;55.638;37.356;2023-05-14T04:14:53;99852.56;;;13.94;53.61
58239;BME280;44037;55.638;37.356;2023-05-14T04:17:20;99856.03;;;13.88;53.78
58239;BME280;44037;55.638;37.356;2023-05-14T04:19:47;99847.38;;;13.83;53.79
58239;BME280;44037;55.638;37.356;2023-05-14T04:22:14;99852.56;;;13.86;53.70
58239;BME280;44037;55.638;37.356;2023-05-14T04:24:41;99851.72;;;13.86;54.32
58239;BME280;44037;55.638;37.356;2023-05-14T04:27:09;99847.38;;;13.92;54.53
58239;BME280;44037;55.638;37.356;2023-05-14T04:29:37;99847.34;;;14.05;54.15
58239;BME280;44037;55.638;37.356;2023-05-14T04:32:04;99847.31;;;14.19;54.28
58239;BME280;44037;55.638;37.356;2023-05-14T04:34:32;99843.84;;;14.21;52.65
58239;BME280;44037;55.638;37.356;2023-05-14T04:36:59;99843.84;;;14.21;53.37
58239;BME280;44037;55.638;37.356;2023-05-14T04:39:28;99850.78;;;14.19;53.31
58239;BME280;44037;55.638;37.356;2023-05-14T04:41:55;99848.16;;;14.18;53.14
58239;BME280;44037;55.638;37.356;2023-05-14T04:44:24;99844.69;;;14.22;53.05
58239;BME280;44037;55.638;37.356;2023-05-14T04:46:51;99855.97;;;14.32;52.98
58239;BME280;44037;55.638;37.356;2023-05-14T04:49:18;99849.84;;;14.48;52.75
58239;BME280;44037;55.638;37.356;2023-05-14T04:51:46;99846.31;;;14.68;51.54
58239;BME280;44037;55.638;37.356;2023-05-14T04:54:14;99847.06;;;14.88;51.64
58239;BME280;44037;55.638;37.356;2023-05-14T04:56:41;99847.75;;;15.20;50.50
58239;BME280;44037;55.638;37.356;2023-05-14T04:59:08;99845.00;;;15.40;49.98
58239;BME280;44037;55.638;37.356;2023-05-14T05:01:36;99858.88;;;15.50;49.76
58239;BME280;44037;55.638;37.356;2023-05-14T05:04:04;99849.28;;;15.55;49.44
58239;BME280;44037;55.638;37.356;2023-05-14T05:06:31;99849.28;;;15.55;48.95
58239;BME280;44037;55.638;37.356;2023-05-14T05:08:58;99843.25;;;15.44;48.90
58239;BME280;44037;55.638;37.356;2023-05-14T05:11:25;99847.66;;;15.35;49.58
58239;BME280;44037;55.638;37.356;2023-05-14T05:13:52;99848.56;;;15.30;49.42
58239;BME280;44037;55.638;37.356;2023-05-14T05:16:19;99851.31;;;15.11;48.56
58239;BME280;44037;55.638;37.356;2023-05-14T05:18:48;99848.81;;;14.93;49.68
58239;BME280;44037;55.638;37.356;2023-05-14T05:21:15;99856.66;;;14.85;50.30
58239;BME280;44037;55.638;37.356;2023-05-14T05:23:42;99847.09;;;14.81;49.83
58239;BME280;44037;55.638;37.356;2023-05-14T05:26:09;99854.13;;;14.74;50.31
58239;BME280;44037;55.638;37.356;2023-05-14T05:28:36;99856.72;;;14.65;50.04
58239;BME280;44037;55.638;37.356;2023-05-14T05:31:04;99854.16;;;14.62;50.95
58239;BME280;44037;55.638;37.356;2023-05-14T05:33:31;99867.19;;;14.68;51.26
58239;BME280;44037;55.638;37.356;2023-05-14T05:36:00;99862.81;;;14.73;50.51
58239;BME280;44037;55.638;37.356;2023-05-14T05:38:27;99852.38;;;14.78;51.18
58239;BME280;44037;55.638;37.356;2023-05-14T05:40:54;99864.50;;;14.86;51.25
58239;BME280;44037;55.638;37.356;2023-05-14T05:43:22;99862.72;;;14.92;50.53
58239;BME280;44037;55.638;37.356;2023-05-14T05:45:49;99852.28;;;14.88;50.09
58239;BME280;44037;55.638;37.356;2023-05-14T05:48:16;99859.28;;;14.83;50.09
58239;BME280;44037;55.638;37.356;2023-05-14T05:50:45;99848.88;;;14.80;50.41
58239;BME280;44037;55.638;37.356;2023-05-14T05:53:14;99841.03;;;14.83;50.33
58239;BME280;44037;55.638;37.356;2023-05-14T05:55:42;99845.34;;;14.87;50.21
58239;BME280;44037;55.638;37.356;2023-05-14T05:58:09;99839.25;;;14.90;50.30
58239;BME280;44037;55.638;37.356;2023-05-14T06:00:37;99838.38;;;14.93;50.49
58239;BME280;44037;55.638;37.356;2023-05-14T06:03:04;99836.59;;;15.02;51.05
58239;BME280;44037;55.638;37.356;2023-05-14T06:05:31;99831.25;;;15.16;50.44
58239;BME280;44037;55.638;37.356;2023-05-14T06:07:58;99841.63;;;15.29;49.87
58239;BME280;44037;55.638;37.356;2023-05-14T06:10:27;99841.53;;;15.38;49.35
58239;BME280;44037;55.638;37.356;2023-05-14T06:12:54;99836.25;;;15.46;48.75
58239;BME280;44037;55.638;37.356;2023-05-14T06:15:21;99837.97;;;15.51;48.74
58239;BME280;44037;55.638;37.356;2023-05-14T06:17:49;99840.50;;;15.59;47.62
58239;BME280;44037;55.638;37.356;2023-05-14T06:20:16;99834.47;;;15.56;46.98
58239;BME280;44037;55.638;37.356;2023-05-14T06:22:43;99833.59;;;15.54;47.13
58239;BME280;44037;55.638;37.356;2023-05-14T06:25:10;99830.00;;;15.67;47.17
58239;BME280;44037;55.638;37.356;2023-05-14T06:27:39;99840.38;;;15.75;46.14
58239;BME280;44037;55.638;37.356;2023-05-14T06:30:07;99834.31;;;15.74;45.84
58239;BME280;44037;55.638;37.356;2023-05-14T06:32:35;99836.00;;;15.80;46.13
58239;BME280;44037;55.638;37.356;2023-05-14T06:35:03;99835.72;;;16.12;46.36
58239;BME280;44037;55.638;37.356;2023-05-14T06:37:32;99833.63;;;16.44;45.20
58239;BME280;44037;55.638;37.356;2023-05-14T06:39:59;99829.91;;;16.61;43.53
58239;BME280;44037;55.638;37.356;2023-05-14T06:42:27;99830.72;;;16.69;43.75
58239;BME280;44037;55.638;37.356;2023-05-14T06:44:55;99833.25;;;16.73;42.88
58239;BME280;44037;55.638;37.356;2023-05-14T06:47:23;99836.59;;;16.85;40.41
58239;BME280;44037;55.638;37.356;2023-05-14T06:49:50;99830.13;;;17.12;41.09
58239;BME280;44037;55.638;37.356;2023-05-14T06:52:17;99834.25;;;17.27;40.58
58239;BME280;44037;55.638;37.356;2023-05-14T06:54:44;99849.88;;;17.33;40.10
58239;BME280;44037;55.638;37.356;2023-05-14T06:57:11;99837.94;;;17.14;38.86
58239;BME280;44037;55.638;37.356;2023-05-14T06:59:38;99843.50;;;16.89;40.02
58239;BME280;44037;55.638;37.356;2023-05-14T07:02:07;99844.31;;;16.96;40.11
58239;BME280;44037;55.638;37.356;2023-05-14T07:04:34;99844.03;;;17.17;39.85
58239;BME280;44037;55.638;37.356;2023-05-14T07:07:01;99843.63;;;17.44;39.67
58239;BME280;44037;55.638;37.356;2023-05-14T07:09:29;99844.28;;;17.57;39.67
58239;BME280;44037;55.638;37.356;2023-05-14T07:11:56;99855.59;;;17.60;38.37
58239;BME280;44037;55.638;37.356;2023-05-14T07:14:23;99848.69;;;17.53;38.54
58239;BME280;44037;55.638;37.356;2023-05-14T07:16:50;99851.38;;;17.50;38.21
58239;BME280;44037;55.638;37.356;2023-05-14T07:19:19;99850.88;;;17.26;37.71
58239;BME280;44037;55.638;37.356;2023-05-14T07:21:46;99860.81;;;17.01;37.84
58239;BME280;44037;55.638;37.356;2023-05-14T07:24:14;99866.16;;;16.90;38.02
58239;BME280;44037;55.638;37.356;2023-05-14T07:26:41;99865.38;;;16.85;38.30
58239;BME280;44037;55.638;37.356;2023-05-14T07:29:08;99861.88;;;16.84;38.79
58239;BME280;44037;55.638;37.356;2023-05-14T07:31:35;99858.31;;;16.95;38.83
58239;BME280;44037;55.638;37.356;2023-05-14T07:34:02;99863.47;;;16.98;38.72
58239;BME280;44037;55.638;37.356;2023-05-14T07:36:31;99873.09;;;16.96;39.48
58239;BME280;44037;55.638;37.356;2023-05-14T07:38:58;99867.00;;;16.92;39.27
58239;BME280;44037;55.638;37.356;2023-05-14T07:41:25;99870.59;;;16.85;39.39
58239;BME280;44037;55.638;37.356;2023-05-14T07:43:53;99881.03;;;16.88;38.93
58239;BME280;44037;55.638;37.356;2023-05-14T07:46:20;99872.31;;;16.87;38.74
58239;BME280;44037;55.638;37.356;2023-05-14T07:48:48;99867.81;;;17.00;38.58
58239;BME280;44037;55.638;37.356;2023-05-14T07:51:15;99864.91;;;17.22;37.81
58239;BME280;44037;55.638;37.356;2023-05-14T07:53:44;99870.50;;;17.55;37.53
58239;BME280;44037;55.638;37.356;2023-05-14T07:56:11;99870.97;;;17.79;36.28
58239;BME280;44037;55.638;37.356;2023-05-14T07:58:38;99864.72;;;17.89;35.63
58239;BME280;44037;55.638;37.356;2023-05-14T08:01:05;99862.78;;;18.01;36.42
58239;BME280;44037;55.638;37.356;2023-05-14T08:03:33;99865.88;;;18.23;35.67
58239;BME280;44037;55.638;37.356;2023-05-14T08:06:00;99876.75;;;18.48;35.24
58239;BME280;44037;55.638;37.356;2023-05-14T08:08:28;99864.94;;;18.71;35.33
58239;BME280;44037;55.638;37.356;2023-05-14T08:10:57;99873.97;;;19.00;32.85
58239;BME280;44037;55.638;37.356;2023-05-14T08:13:24;99864.78;;;19.19;33.48
58239;BME280;44037;55.638;37.356;2023-05-14T08:15:51;99860.13;;;19.31;32.52
58239;BME280;44037;55.638;37.356;2023-05-14T08:18:18;99860.13;;;19.31;32.63
58239;BME280;44037;55.638;37.356;2023-05-14T08:20:45;99860.50;;;19.15;32.88
58239;BME280;44037;55.638;37.356;2023-05-14T08:23:13;99861.31;;;19.17;33.05
58239;BME280;44037;55.638;37.356;2023-05-14T08:25:40;99860.50;;;19.15;32.94
58239;BME280;44037;55.638;37.356;2023-05-14T08:28:09;99861.66;;;19.03;33.31
58239;BME280;44037;55.638;37.356;2023-05-14T08:30:36;99863.63;;;18.91;33.50
58239;BME280;44037;55.638;37.356;2023-05-14T08:33:03;99859.38;;;18.86;33.48
58239;BME280;44037;55.638;37.356;2023-05-14T08:35:30;99860.34;;;18.81;34.09
58239;BME280;44037;55.638;37.356;2023-05-14T08:37:57;99866.41;;;18.84;33.82
58239;BME280;44037;55.638;37.356;2023-05-14T08:40:25;99861.09;;;18.87;34.11
58239;BME280;44037;55.638;37.356;2023-05-14T08:42:53;99860.38;;;18.79;34.23
58239;BME280;44037;55.638;37.356;2023-05-14T08:45:27;99859.47;;;18.80;34.42
58239;BME280;44037;55.638;37.356;2023-05-14T08:47:57;99861.22;;;18.81;34.47
58239;BME280;44037;55.638;37.356;2023-05-14T08:50:25;99857.63;;;18.85;34.49
58239;BME280;44037;55.638;37.356;2023-05-14T08:52:54;99867.91;;;18.98;34.69
58239;BME280;44037;55.638;37.356;2023-05-14T08:55:21;99863.53;;;18.97;34.41
58239;BME280;44037;55.638;37.356;2023-05-14T08:57:50;99852.31;;;18.88;34.38
58239;BME280;44037;55.638;37.356;2023-05-14T09:00:17;99866.75;;;18.67;34.52
58239;BME280;44037;55.638;37.356;2023-05-14T09:02:46;99864.72;;;18.38;34.83
58239;BME280;44037;55.638;37.356;2023-05-14T09:05:14;99863.31;;;18.20;34.69
58239;BME280;44037;55.638;37.356;2023-05-14T09:07:43;99858.13;;;18.15;34.81
58239;BME280;44037;55.638;37.356;2023-05-14T09:10:10;99846.72;;;18.19;35.09
58239;BME280;44037;55.638;37.356;2023-05-14T09:12:37;99841.72;;;18.52;35.18
58239;BME280;44037;55.638;37.356;2023-05-14T09:15:05;99844.28;;;18.98;34.71
58239;BME280;44037;55.638;37.356;2023-05-14T09:17:33;99842.81;;;19.22;33.81
58239;BME280;44037;55.638;37.356;2023-05-14T09:20:02;99847.78;;;19.36;33.76
58239;BME280;44037;55.638;37.356;2023-05-14T09:22:31;99835.13;;;19.52;33.73
58239;BME280;44037;55.638;37.356;2023-05-14T09:25:03;99841.91;;;19.61;32.91
58239;BME280;44037;55.638;37.356;2023-05-14T09:27:33;99851.31;;;19.35;34.29
58239;BME280;44037;55.638;37.356;2023-05-14T09:30:04;99855.44;;;19.08;35.23
58239;BME280;44037;55.638;37.356;2023-05-14T09:32:36;99839.56;;;19.12;35.72
58239;BME280;44037;55.638;37.356;2023-05-14T09:35:13;99860.06;;;19.34;35.17
58239;BME280;44037;55.638;37.356;2023-05-14T09:37:43;99846.63;;;19.10;35.04
58239;BME280;44037;55.638;37.356;2023-05-14T09:40:12;99854.81;;;18.96;35.29
58239;BME280;44037;55.638;37.356;2023-05-14T09:42:39;99844.03;;;19.09;35.33
58239;BME280;44037;55.638;37.356;2023-05-14T09:45:07;99845.78;;;19.08;34.58
58239;BME280;44037;55.638;37.356;2023-05-14T09:47:35;99850.97;;;19.11;35.11
58239;BME280;44037;55.638;37.356;2023-05-14T09:50:03;99856.34;;;19.05;34.66
58239;BME280;44037;55.638;37.356;2023-05-14T09:52:32;99848.69;;;18.96;34.96
58239;BME280;44037;55.638;37.356;2023-05-14T09:55:00;99854.66;;;19.02;35.08
58239;BME280;44037;55.638;37.356;2023-05-14T09:57:28;99858.34;;;18.94;34.59
58239;BME280;44037;55.638;37.356;2023-05-14T09:59:55;99855.06;;;18.82;34.55
58239;BME280;44037;55.638;37.356;2023-05-14T10:02:23;99843.09;;;18.70;35.28
58239;BME280;44037;55.638;37.356;2023-05-14T10:04:52;99848.88;;;18.86;35.39
58239;BME280;44037;55.638;37.356;2023-05-14T10:07:26;99840.41;;;19.13;35.08
58239;BME280;44037;55.638;37.356;2023-05-14T10:10:01;99852.25;;;19.31;34.46
58239;BME280;44037;55.638;37.356;2023-05-14T10:12:32;99840.19;;;19.24;34.11
58239;BME280;44037;55.638;37.356;2023-05-14T10:15:03;99832.53;;;19.14;34.27
58239;BME280;44037;55.638;37.356;2023-05-14T10:17:33;99846.56;;;19.12;34.26
58239;BME280;44037;55.638;37.356;2023-05-14T10:20:05;99846.00;;;18.97;34.41
58239;BME280;44037;55.638;37.356;2023-05-14T10:22:34;99829.41;;;18.97;35.17
58239;BME280;44037;55.638;37.356;2023-05-14T10:25:03;99842.50;;;18.98;34.64
58239;BME280;44037;55.638;37.356;2023-05-14T10:27:31;99846.06;;;18.96;34.87
58239;BME280;44037;55.638;37.356;2023-05-14T10:29:59;99849.56;;;18.96;34.76
58239;BME280;44037;55.638;37.356;2023-05-14T10:32:26;99855.44;;;19.06;34.16
58239;BME280;44037;55.638;37.356;2023-05-14T10:35:00;99856.56;;;18.96;33.82
58239;BME280;44037;55.638;37.356;2023-05-14T10:37:29;99840.09;;;18.87;34.17
58239;BME280;44037;55.638;37.356;2023-05-14T10:39:58;99844.88;;;18.68;34.05
58239;BME280;44037;55.638;37.356;2023-05-14T10:42:30;99833.50;;;18.68;33.99
58239;BME280;44037;55.638;37.356;2023-05-14T10:45:01;99842.16;;;18.73;33.74
58239;BME280;44037;55.638;37.356;2023-05-14T10:47:32;99842.09;;;18.75;34.34
58239;BME280;44037;55.638;37.356;2023-05-14T10:50:02;99838.38;;;18.85;34.63
58239;BME280;44037;55.638;37.356;2023-05-14T10:52:30;99837.97;;;19.05;34.39
58239;BME280;44037;55.638;37.356;2023-05-14T10:54:59;99828.84;;;19.22;33.41
58239;BME280;44037;55.638;37.356;2023-05-14T10:57:30;99844.47;;;19.28;32.54
58239;BME280;44037;55.638;37.356;2023-05-14T10:59:59;99841.75;;;19.31;33.35
58239;BME280;44037;55.638;37.356;2023-05-14T11:02:28;99836.97;;;19.48;33.07
58239;BME280;44037;55.638;37.356;2023-05-14T11:04:57;99830.63;;;19.57;33.06
58239;BME280;44037;55.638;37.356;2023-05-14T11:07:29;99824.81;;;19.79;33.11
58239;BME280;44037;55.638;37.356;2023-05-14T11:10:02;99832.91;;;20.06;32.25
58239;BME280;44037;55.638;37.356;2023-05-14T11:12:32;99819.56;;;20.14;32.01
58239;BME280;44037;55.638;37.356;2023-05-14T11:15:01;99829.88;;;20.21;31.55
58239;BME280;44037;55.638;37.356;2023-05-14T11:17:31;99822.69;;;20.26;31.89
58239;BME280;44037;55.638;37.356;2023-05-14T11:20:00;99819.78;;;20.36;32.23
58239;BME280;44037;55.638;37.356;2023-05-14T11:22:31;99826.75;;;20.38;31.05
58239;BME280;44037;55.638;37.356;2023-05-14T11:24:59;99815.34;;;20.06;31.29
58239;BME280;44037;55.638;37.356;2023-05-14T11:27:26;99825.53;;;19.86;32.09
58239;BME280;44037;55.638;37.356;2023-05-14T11:29:55;99820.41;;;19.79;32.23
58239;BME280;44037;55.638;37.356;2023-05-14T11:32:23;99819.50;;;19.80;32.48
58239;BME280;44037;55.638;37.356;2023-05-14T11:34:50;99809.72;;;19.89;32.66
58239;BME280;44037;55.638;37.356;2023-05-14T11:37:17;99806.53;;;20.09;32.65
58239;BME280;44037;55.638;37.356;2023-05-14T11:39:48;99797.97;;;20.34;32.09
58239;BME280;44037;55.638;37.356;2023-05-14T11:42:17;99801.22;;;20.42;31.47
58239;BME280;44037;55.638;37.356;2023-05-14T11:44:46;99811.28;;;20.28;31.69
58239;BME280;44037;55.638;37.356;2023-05-14T11:47:17;99813.88;;;19.96;32.10
58239;BME280;44037;55.638;37.356;2023-05-14T11:49:45;99812.84;;;19.67;32.18
58239;BME280;44037;55.638;37.356;2023-05-14T11:52:14;99809.38;;;19.67;32.73
58239;BME280;44037;55.638;37.356;2023-05-14T11:54:44;99812.13;;;19.62;32.74
58239;BME280;44037;55.638;37.356;2023-05-14T11:57:12;99807.81;;;19.59;32.77
58239;BME280;44037;55.638;37.356;2023-05-14T11:59:40;99810.38;;;19.61;32.94
58239;BME280;44037;55.638;37.356;2023-05-14T12:02:09;99815.47;;;19.67;32.99
58239;BME280;44037;55.638;37.356;2023-05-14T12:04:39;99806.16;;;19.55;32.60
58239;BME280;44037;55.638;37.356;2023-05-14T12:07:08;99822.03;;;19.51;32.03
58239;BME280;44037;55.638;37.356;2023-05-14T12:09:36;99815.59;;;19.26;32.50
58239;BME280;44037;55.638;37.356;2023-05-14T12:12:08;99810.81;;;19.08;32.51
58239;BME280;44037;55.638;37.356;2023-05-14T12:14:37;99808.06;;;19.12;32.92
58239;BME280;44037;55.638;37.356;2023-05-14T12:17:11;99811.22;;;19.27;33.34
58239;BME280;44037;55.638;37.356;2023-05-14T12:19:41;99815.13;;;19.46;33.11
58239;BME280;44037;55.638;37.356;2023-05-14T12:22:10;99800.91;;;19.55;32.31
58239;BME280;44037;55.638;37.356;2023-05-14T12:24:37;99809.72;;;19.53;31.76
58239;BME280;44037;55.638;37.356;2023-05-14T12:27:06;99807.59;;;19.32;31.93
58239;BME280;44037;55.638;37.356;2023-05-14T12:29:37;99808.91;;;19.13;32.05
58239;BME280;44037;55.638;37.356;2023-05-14T12:32:07;99799.41;;;19.07;32.42
58239;BME280;44037;55.638;37.356;2023-05-14T12:34:36;99802.22;;;18.99;32.80
58239;BME280;44037;55.638;37.356;2023-05-14T12:37:05;99802.41;;;18.90;33.13
58239;BME280;44037;55.638;37.356;2023-05-14T12:39:33;99803.22;;;18.94;33.46
58239;BME280;44037;55.638;37.356;2023-05-14T12:42:00;99796.84;;;19.06;32.85
58239;BME280;44037;55.638;37.356;2023-05-14T12:44:27;99810.81;;;19.06;32.20
58239;BME280;44037;55.638;37.356;2023-05-14T12:46:54;99806.69;;;18.96;32.19
58239;BME280;44037;55.638;37.356;2023-05-14T12:49:22;99800.72;;;18.87;32.55
58239;BME280;44037;55.638;37.356;2023-05-14T12:51:49;99808.66;;;18.84;32.94
58239;BME280;44037;55.638;37.356;2023-05-14T12:54:18;99803.81;;;18.66;33.42